Station Historical Data
Daily Summary for June 18, 2012 Units:  English    Metric   Both
« Previous Day
Next Day »
Daily Weekly Monthly Yearly Custom
  High: Low: Average:
Temperature: 87.1 °F 66.1 °F 76.9 °F
Dew Point: 71.4 °F 61.2 °F 65.4 °F
Humidity: 87% 47% 69%
Wind Speed: 11.0mph 0.0mph 3.7mph
Wind Gust: 16.0mph - -
Wind- - South
Pressure: 29.99 in 29.90 in -
Precipitation: 0.00 in    
Historical Graphs
 
 
Tabular Data for June 18, 2012
Time Temperature Dew Point Pressure Wind Wind Speed Wind Gust Humidity Rainfall Rate (Hourly) Conditions
00:00 71.0 °F 61.5 °F 29.93 in SE 1.0 mph 1.0 mph 72% 0.00 in
00:05 70.7 °F 61.6 °F 29.93 in Calm     73% 0.00 in
00:10 70.3 °F 61.2 °F 29.94 in Calm     73% 0.00 in
00:15 70.0 °F 61.7 °F 29.94 in Calm     75% 0.00 in
00:20 69.9 °F 61.6 °F 29.94 in Calm     75% 0.00 in
00:25 69.8 °F 61.5 °F 29.94 in Calm   1.0 mph 75% 0.00 in
00:30 69.5 °F 61.6 °F 29.94 in SE 1.0 mph 1.0 mph 76% 0.00 in
00:35 69.4 °F 61.5 °F 29.94 in SE 1.0 mph 1.0 mph 76% 0.00 in
00:40 69.5 °F 61.6 °F 29.93 in SSE 1.0 mph 1.0 mph 76% 0.00 in
00:45 69.6 °F 61.7 °F 29.93 in Calm   1.0 mph 76% 0.00 in
00:51 69.6 °F 61.3 °F 29.93 in Calm   1.0 mph 75% 0.00 in
00:56 69.7 °F 61.4 °F 29.93 in Calm   1.0 mph 75% 0.00 in
01:01 69.7 °F 61.4 °F 29.93 in Calm     75% 0.00 in
01:06 69.6 °F 61.3 °F 29.93 in Calm   1.0 mph 75% 0.00 in
01:11 69.6 °F 61.7 °F 29.93 in Calm   1.0 mph 76% 0.00 in
01:16 69.4 °F 61.5 °F 29.93 in Calm   1.0 mph 76% 0.00 in
01:21 69.4 °F 61.5 °F 29.92 in Calm     76% 0.00 in
01:26 69.4 °F 61.5 °F 29.92 in SSE 1.0 mph 1.0 mph 76% 0.00 in
01:31 69.3 °F 61.8 °F 29.92 in SSE 1.0 mph 1.0 mph 77% 0.00 in
01:36 69.4 °F 61.9 °F 29.92 in SE 2.0 mph 3.0 mph 77% 0.00 in
01:41 69.5 °F 62.0 °F 29.92 in SE 2.0 mph 3.0 mph 77% 0.00 in
01:46 69.9 °F 62.0 °F 29.92 in SSE 2.0 mph 2.0 mph 76% 0.00 in
01:51 69.9 °F 62.0 °F 29.92 in ESE 3.0 mph 3.0 mph 76% 0.00 in
01:56 69.8 °F 61.9 °F 29.92 in ESE 4.0 mph 6.0 mph 76% 0.00 in
02:01 69.2 °F 62.1 °F 29.92 in ESE 1.0 mph 3.0 mph 78% 0.00 in
02:06 68.8 °F 62.0 °F 29.92 in ESE 3.0 mph 4.0 mph 79% 0.00 in
02:11 68.8 °F 62.0 °F 29.92 in ESE 3.0 mph 3.0 mph 79% 0.00 in
02:16 68.5 °F 62.1 °F 29.92 in ESE 3.0 mph 3.0 mph 80% 0.00 in
02:21 68.6 °F 62.2 °F 29.92 in SE 2.0 mph 3.0 mph 80% 0.00 in
02:26 69.0 °F 62.2 °F 29.91 in SE 3.0 mph 4.0 mph 79% 0.00 in
02:31 69.4 °F 62.2 °F 29.91 in SE 3.0 mph 5.0 mph 78% 0.00 in
02:36 69.7 °F 62.5 °F 29.91 in SE 3.0 mph 4.0 mph 78% 0.00 in
02:41 69.8 °F 62.6 °F 29.91 in SE 3.0 mph 4.0 mph 78% 0.00 in
02:46 69.8 °F 62.6 °F 29.91 in ESE 4.0 mph 6.0 mph 78% 0.00 in
02:51 69.9 °F 62.4 °F 29.91 in ESE 4.0 mph 5.0 mph 77% 0.00 in
02:56 69.8 °F 62.6 °F 29.91 in SE 3.0 mph 5.0 mph 78% 0.00 in
03:01 69.9 °F 62.4 °F 29.91 in ESE 4.0 mph 5.0 mph 77% 0.00 in
03:06 70.1 °F 62.2 °F 29.90 in SE 3.0 mph 6.0 mph 76% 0.00 in
03:11 70.2 °F 62.3 °F 29.90 in SE 5.0 mph 7.0 mph 76% 0.00 in
03:16 70.2 °F 62.3 °F 29.90 in ESE 5.0 mph 5.0 mph 76% 0.00 in
03:21 70.1 °F 62.6 °F 29.90 in SE 4.0 mph 5.0 mph 77% 0.00 in
03:26 69.9 °F 62.4 °F 29.90 in ESE 4.0 mph 6.0 mph 77% 0.00 in
03:31 69.7 °F 62.5 °F 29.90 in ESE 2.0 mph 5.0 mph 78% 0.00 in
03:36 69.5 °F 62.3 °F 29.90 in ESE 3.0 mph 4.0 mph 78% 0.00 in
03:41 69.3 °F 62.5 °F 29.90 in SE 4.0 mph 5.0 mph 79% 0.00 in
03:46 69.3 °F 62.5 °F 29.90 in SE 4.0 mph 5.0 mph 79% 0.00 in
03:51 69.5 °F 62.7 °F 29.91 in SE 6.0 mph 7.0 mph 79% 0.00 in
03:56 69.5 °F 62.7 °F 29.90 in SE 4.0 mph 6.0 mph 79% 0.00 in
04:01 69.4 °F 62.6 °F 29.90 in SE 3.0 mph 6.0 mph 79% 0.00 in
04:06 69.3 °F 62.5 °F 29.90 in SE 3.0 mph 5.0 mph 79% 0.00 in
04:11 69.0 °F 62.6 °F 29.90 in SE 4.0 mph 6.0 mph 80% 0.00 in
04:16 69.0 °F 62.6 °F 29.90 in SE 4.0 mph 6.0 mph 80% 0.00 in
04:21 69.0 °F 62.6 °F 29.91 in SE 2.0 mph 6.0 mph 80% 0.00 in
04:26 68.8 °F 62.7 °F 29.91 in SE 3.0 mph 5.0 mph 81% 0.00 in
04:31 68.5 °F 62.5 °F 29.91 in SE 2.0 mph 3.0 mph 81% 0.00 in
04:36 68.4 °F 62.7 °F 29.91 in SE 2.0 mph 4.0 mph 82% 0.00 in
04:41 68.1 °F 62.4 °F 29.91 in SSE 3.0 mph 3.0 mph 82% 0.00 in
04:47 67.8 °F 62.5 °F 29.91 in SSE 3.0 mph 3.0 mph 83% 0.00 in
04:51 67.5 °F 62.2 °F 29.91 in SE 2.0 mph 3.0 mph 83% 0.00 in
04:56 67.3 °F 62.3 °F 29.91 in SE 2.0 mph 4.0 mph 84% 0.00 in
05:01 67.3 °F 62.3 °F 29.91 in SSE 3.0 mph 5.0 mph 84% 0.00 in
05:07 67.2 °F 62.2 °F 29.91 in SSE 5.0 mph 5.0 mph 84% 0.00 in
05:12 67.1 °F 62.1 °F 29.91 in SSE 2.0 mph 4.0 mph 84% 0.00 in
05:17 66.9 °F 62.2 °F 29.92 in SSE 2.0 mph 4.0 mph 85% 0.00 in
05:22 66.9 °F 62.2 °F 29.92 in SE 4.0 mph 4.0 mph 85% 0.00 in
05:27 66.9 °F 62.2 °F 29.92 in SE 3.0 mph 3.0 mph 85% 0.00 in
05:32 66.8 °F 62.2 °F 29.92 in SSE 2.0 mph 3.0 mph 85% 0.00 in
05:37 66.8 °F 62.2 °F 29.92 in SE 2.0 mph 3.0 mph 85% 0.00 in
05:42 66.8 °F 62.2 °F 29.92 in Calm   2.0 mph 85% 0.00 in
05:47 66.7 °F 62.0 °F 29.93 in Calm   1.0 mph 85% 0.00 in
05:52 66.7 °F 62.0 °F 29.93 in Calm   1.0 mph 85% 0.00 in
05:57 66.8 °F 62.5 °F 29.93 in SE 2.0 mph 2.0 mph 86% 0.00 in
06:02 66.9 °F 62.2 °F 29.93 in SE 2.0 mph 2.0 mph 85% 0.00 in
06:07 67.0 °F 62.3 °F 29.93 in SE 2.0 mph 3.0 mph 85% 0.00 in
06:12 67.0 °F 62.3 °F 29.93 in SE 1.0 mph 2.0 mph 85% 0.00 in
06:17 66.9 °F 62.2 °F 29.93 in SE 2.0 mph 2.0 mph 85% 0.00 in
06:22 66.9 °F 62.2 °F 29.93 in SE 2.0 mph 3.0 mph 85% 0.00 in
06:27 66.9 °F 62.2 °F 29.94 in SE 2.0 mph 3.0 mph 85% 0.00 in
06:32 66.9 °F 62.2 °F 29.94 in SE 2.0 mph 3.0 mph 85% 0.00 in
06:37 66.8 °F 62.2 °F 29.94 in ESE 3.0 mph 3.0 mph 85% 0.00 in
06:42 66.6 °F 62.0 °F 29.94 in ESE 2.0 mph 3.0 mph 85% 0.00 in
06:47 66.4 °F 62.1 °F 29.94 in ESE 1.0 mph 2.0 mph 86% 0.00 in
06:52 66.2 °F 61.9 °F 29.95 in ESE 1.0 mph 2.0 mph 86% 0.00 in
06:57 66.1 °F 62.1 °F 29.95 in ESE 2.0 mph 3.0 mph 87% 0.00 in
07:02 66.1 °F 62.1 °F 29.95 in East 2.0 mph 3.0 mph 87% 0.00 in
07:07 66.3 °F 62.3 °F 29.95 in ESE 1.0 mph 2.0 mph 87% 0.00 in
07:12 66.5 °F 62.2 °F 29.95 in Calm   1.0 mph 86% 0.00 in
07:17 66.8 °F 62.5 °F 29.95 in ESE 1.0 mph 2.0 mph 86% 0.00 in
07:22 67.2 °F 62.5 °F 29.95 in ESE 1.0 mph 2.0 mph 85% 0.00 in
07:27 67.6 °F 62.9 °F 29.95 in ESE 2.0 mph 3.0 mph 85% 0.00 in
07:32 68.0 °F 63.3 °F 29.95 in ESE 3.0 mph 4.0 mph 85% 0.00 in
07:37 68.3 °F 63.3 °F 29.95 in SE 3.0 mph 4.0 mph 84% 0.00 in
07:42 68.8 °F 63.4 °F 29.96 in SE 4.0 mph 6.0 mph 83% 0.00 in
07:47 69.4 °F 63.3 °F 29.96 in SE 3.0 mph 6.0 mph 81% 0.00 in
07:52 69.8 °F 63.7 °F 29.96 in SSE 3.0 mph 5.0 mph 81% 0.00 in
07:57 70.1 °F 64.0 °F 29.96 in SSE 5.0 mph 6.0 mph 81% 0.00 in
08:02 70.4 °F 63.9 °F 29.96 in SE 7.0 mph 7.0 mph 80% 0.00 in
08:07 70.7 °F 64.2 °F 29.97 in SE 7.0 mph 7.0 mph 80% 0.00 in
08:12 70.9 °F 64.4 °F 29.97 in SE 4.0 mph 7.0 mph 80% 0.00 in
08:17 71.2 °F 64.4 °F 29.97 in SE 3.0 mph 6.0 mph 79% 0.00 in
08:22 71.6 °F 64.8 °F 29.97 in South 2.0 mph 7.0 mph 79% 0.00 in
08:27 72.1 °F 64.5 °F 29.98 in SW 5.0 mph 6.0 mph 77% 0.00 in
08:32 72.5 °F 64.9 °F 29.97 in SSE 3.0 mph 9.0 mph 77% 0.00 in
08:37 72.7 °F 65.1 °F 29.97 in SSE 3.0 mph 6.0 mph 77% 0.00 in
08:42 73.2 °F 65.6 °F 29.97 in SSW 5.0 mph 5.0 mph 77% 0.00 in
08:47 73.4 °F 65.8 °F 29.97 in SSW 4.0 mph 8.0 mph 77% 0.00 in
08:52 73.6 °F 65.9 °F 29.97 in SSW 4.0 mph 7.0 mph 77% 0.00 in
08:57 74.0 °F 66.3 °F 29.97 in SSE 5.0 mph 5.0 mph 77% 0.00 in
09:02 74.2 °F 66.5 °F 29.98 in South 5.0 mph 7.0 mph 77% 0.00 in
09:07 74.5 °F 66.8 °F 29.98 in SSW 5.0 mph 7.0 mph 77% 0.00 in
09:12 74.8 °F 67.5 °F 29.97 in SSW 4.0 mph 7.0 mph 78% 0.00 in
09:18 75.1 °F 67.8 °F 29.98 in SSE 6.0 mph 8.0 mph 78% 0.00 in
09:23 75.5 °F 67.8 °F 29.98 in SW 8.0 mph 8.0 mph 77% 0.00 in
09:28 75.8 °F 68.1 °F 29.98 in SSW 5.0 mph 8.0 mph 77% 0.00 in
09:33 75.9 °F 68.6 °F 29.98 in South 5.0 mph 6.0 mph 78% 0.00 in
09:38 75.9 °F 68.2 °F 29.99 in SW 7.0 mph 8.0 mph 77% 0.00 in
09:43 76.0 °F 68.3 °F 29.98 in WSW 4.0 mph 9.0 mph 77% 0.00 in
09:48 76.3 °F 68.9 °F 29.98 in WSW 6.0 mph 7.0 mph 78% 0.00 in
09:53 76.7 °F 68.6 °F 29.98 in WSW 6.0 mph 8.0 mph 76% 0.00 in
09:58 76.9 °F 69.2 °F 29.98 in WSW 6.0 mph 6.0 mph 77% 0.00 in
10:03 77.3 °F 69.5 °F 29.99 in WSW 5.0 mph 9.0 mph 77% 0.00 in
10:08 77.3 °F 70.3 °F 29.99 in SSW 7.0 mph 7.0 mph 79% 0.00 in
10:13 77.6 °F 70.6 °F 29.99 in SSW 7.0 mph 8.0 mph 79% 0.00 in
10:18 77.7 °F 70.3 °F 29.99 in SW 9.0 mph 9.0 mph 78% 0.00 in
10:23 77.9 °F 69.7 °F 29.99 in SSW 3.0 mph 7.0 mph 76% 0.00 in
10:28 78.1 °F 70.3 °F 29.99 in WSW 6.0 mph 8.0 mph 77% 0.00 in
10:33 78.3 °F 69.7 °F 29.99 in SW 4.0 mph 10.0 mph 75% 0.00 in
10:38 78.7 °F 70.9 °F 29.99 in West 2.0 mph 7.0 mph 77% 0.00 in
10:43 78.9 °F 70.3 °F 29.99 in SW 4.0 mph 9.0 mph 75% 0.00 in
10:48 79.6 °F 71.4 °F 29.99 in SSE 5.0 mph 6.0 mph 76% 0.00 in
10:53 80.1 °F 70.7 °F 29.99 in SW 6.0 mph 9.0 mph 73% 0.00 in
10:58 80.2 °F 70.8 °F 29.99 in SSW 4.0 mph 9.0 mph 73% 0.00 in
11:03 80.7 °F 71.2 °F 29.99 in South 6.0 mph 8.0 mph 73% 0.00 in
11:08 80.7 °F 70.8 °F 29.99 in SW 7.0 mph 10.0 mph 72% 0.00 in
11:13 80.5 °F 69.8 °F 29.99 in South 4.0 mph 9.0 mph 70% 0.00 in
11:18 80.4 °F 71.0 °F 29.98 in South 2.0 mph 8.0 mph 73% 0.00 in
11:23 80.3 °F 70.5 °F 29.99 in SSW 4.0 mph 8.0 mph 72% 0.00 in
11:28 80.7 °F 70.4 °F 29.99 in SW 4.0 mph 9.0 mph 71% 0.00 in
11:33 80.7 °F 70.0 °F 29.99 in SW 6.0 mph 9.0 mph 70% 0.00 in
11:38 81.2 °F 70.5 °F 29.99 in SE 8.0 mph 11.0 mph 70% 0.00 in
11:43 81.8 °F 70.6 °F 29.99 in SSE 5.0 mph 12.0 mph 69% 0.00 in
11:48 81.9 °F 69.4 °F 29.99 in SW 8.0 mph 12.0 mph 66% 0.00 in
11:53 81.1 °F 68.7 °F 29.99 in SW 6.0 mph 10.0 mph 66% 0.00 in
11:58 80.8 °F 69.3 °F 29.99 in SW 4.0 mph 10.0 mph 68% 0.00 in
12:03 81.4 °F 69.8 °F 29.99 in West 7.0 mph 9.0 mph 68% 0.00 in
12:08 81.9 °F 70.7 °F 29.99 in SSE 4.0 mph 8.0 mph 69% 0.00 in
12:14 81.7 °F 68.3 °F 29.98 in SW 5.0 mph 10.0 mph 64% 0.00 in
12:18 81.2 °F 68.3 °F 29.98 in SSW 4.0 mph 8.0 mph 65% 0.00 in
12:24 81.6 °F 69.6 °F 29.98 in South 6.0 mph 13.0 mph 67% 0.00 in
12:29 82.8 °F 68.9 °F 29.98 in SSW 9.0 mph 9.0 mph 63% 0.00 in
12:34 82.8 °F 67.5 °F 29.98 in South 6.0 mph 11.0 mph 60% 0.00 in
12:39 82.7 °F 67.9 °F 29.98 in South 4.0 mph 11.0 mph 61% 0.00 in
12:44 82.8 °F 68.9 °F 29.98 in WSW 5.0 mph 9.0 mph 63% 0.00 in
12:49 83.3 °F 68.5 °F 29.98 in SW 4.0 mph 7.0 mph 61% 0.00 in
12:54 83.8 °F 68.4 °F 29.98 in SSW 5.0 mph 8.0 mph 60% 0.00 in
12:59 84.1 °F 68.2 °F 29.98 in SW 6.0 mph 10.0 mph 59% 0.00 in
13:04 84.3 °F 66.4 °F 29.98 in South 5.0 mph 12.0 mph 55% 0.00 in
13:09 83.7 °F 66.3 °F 29.98 in SW 5.0 mph 9.0 mph 56% 0.00 in
13:14 83.1 °F 66.8 °F 29.98 in SSW 5.0 mph 8.0 mph 58% 0.00 in
13:19 83.6 °F 67.3 °F 29.97 in SW 6.0 mph 12.0 mph 58% 0.00 in
13:24 83.0 °F 65.7 °F 29.98 in South 6.0 mph 9.0 mph 56% 0.00 in
13:29 82.6 °F 65.8 °F 29.97 in SSE 4.0 mph 8.0 mph 57% 0.00 in
13:34 82.8 °F 67.5 °F 29.97 in SE 10.0 mph 10.0 mph 60% 0.00 in
13:39 83.3 °F 68.9 °F 29.97 in SE 8.0 mph 12.0 mph 62% 0.00 in
13:44 83.9 °F 66.0 °F 29.97 in SE 9.0 mph 10.0 mph 55% 0.00 in
13:49 83.3 °F 67.5 °F 29.97 in SSW 4.0 mph 9.0 mph 59% 0.00 in
13:54 83.0 °F 67.7 °F 29.97 in SW 5.0 mph 8.0 mph 60% 0.00 in
13:59 83.4 °F 68.1 °F 29.97 in SSW 7.0 mph 9.0 mph 60% 0.00 in
14:04 82.8 °F 67.0 °F 29.97 in SSW 5.0 mph 11.0 mph 59% 0.00 in
14:09 82.7 °F 66.4 °F 29.97 in South 7.0 mph 10.0 mph 58% 0.00 in
14:14 83.1 °F 68.3 °F 29.96 in SE 3.0 mph 11.0 mph 61% 0.00 in
14:19 83.2 °F 66.4 °F 29.97 in SE 8.0 mph 8.0 mph 57% 0.00 in
14:24 82.8 °F 67.0 °F 29.96 in SSW 6.0 mph 8.0 mph 59% 0.00 in
14:29 82.6 °F 67.3 °F 29.97 in SW 5.0 mph 6.0 mph 60% 0.00 in
14:34 82.7 °F 66.9 °F 29.96 in South 3.0 mph 5.0 mph 59% 0.00 in
14:39 84.0 °F 67.1 °F 29.96 in SSE 8.0 mph 11.0 mph 57% 0.00 in
14:44 84.7 °F 67.8 °F 29.96 in SW 3.0 mph 8.0 mph 57% 0.00 in
14:49 84.8 °F 67.4 °F 29.96 in SW 5.0 mph 6.0 mph 56% 0.00 in
14:54 84.6 °F 68.2 °F 29.96 in SE 10.0 mph 12.0 mph 58% 0.00 in
14:59 85.2 °F 67.2 °F 29.95 in SSE 5.0 mph 10.0 mph 55% 0.00 in
15:04 85.2 °F 67.8 °F 29.95 in SE 6.0 mph 10.0 mph 56% 0.00 in
15:09 85.1 °F 66.6 °F 29.95 in SSE 6.0 mph 7.0 mph 54% 0.00 in
15:14 85.2 °F 66.7 °F 29.95 in WSW 4.0 mph 8.0 mph 54% 0.00 in
15:19 85.4 °F 65.8 °F 29.95 in SSE 7.0 mph 16.0 mph 52% 0.00 in
15:24 85.0 °F 65.4 °F 29.95 in SSE 6.0 mph 10.0 mph 52% 0.00 in
15:29 85.3 °F 66.2 °F 29.94 in South 4.0 mph 6.0 mph 53% 0.00 in
15:34 85.7 °F 66.1 °F 29.94 in WSW 8.0 mph 8.0 mph 52% 0.00 in
15:39 84.9 °F 65.3 °F 29.94 in SW 7.0 mph 10.0 mph 52% 0.00 in
15:44 84.5 °F 65.0 °F 29.94 in South 3.0 mph 9.0 mph 52% 0.00 in
15:49 85.0 °F 66.0 °F 29.94 in ESE 6.0 mph 7.0 mph 53% 0.00 in
15:54 85.2 °F 66.2 °F 29.94 in SSE 6.0 mph 11.0 mph 53% 0.00 in
15:59 85.6 °F 65.4 °F 29.94 in SSW 8.0 mph 12.0 mph 51% 0.00 in
16:04 85.3 °F 65.7 °F 29.94 in SSW 6.0 mph 8.0 mph 52% 0.00 in
16:09 85.7 °F 68.2 °F 29.94 in SSW 3.0 mph 5.0 mph 56% 0.00 in
16:14 86.3 °F 66.1 °F 29.94 in SSW 6.0 mph 7.0 mph 51% 0.00 in
16:19 86.6 °F 65.8 °F 29.94 in SSE 5.0 mph 8.0 mph 50% 0.00 in
16:24 86.4 °F 66.2 °F 29.94 in SW 9.0 mph 10.0 mph 51% 0.00 in
16:29 87.1 °F 67.4 °F 29.94 in WSW 5.0 mph 11.0 mph 52% 0.00 in
16:34 87.0 °F 64.3 °F 29.94 in SSE 9.0 mph 13.0 mph 47% 0.00 in
16:39 86.9 °F 65.5 °F 29.94 in SE 6.0 mph 11.0 mph 49% 0.00 in
16:44 86.7 °F 65.9 °F 29.94 in SW 9.0 mph 10.0 mph 50% 0.00 in
16:49 86.0 °F 66.3 °F 29.94 in SW 10.0 mph 10.0 mph 52% 0.00 in
16:54 85.5 °F 66.4 °F 29.94 in SW 8.0 mph 14.0 mph 53% 0.00 in
17:00 85.7 °F 66.6 °F 29.93 in South 8.0 mph 12.0 mph 53% 0.00 in
17:05 86.0 °F 69.0 °F 29.93 in WSW 9.0 mph 9.0 mph 57% 0.00 in
17:10 85.8 °F 66.7 °F 29.93 in SW 8.0 mph 9.0 mph 53% 0.00 in
17:15 85.7 °F 67.2 °F 29.93 in SW 7.0 mph 8.0 mph 54% 0.00 in
17:20 85.6 °F 67.6 °F 29.93 in WSW 7.0 mph 8.0 mph 55% 0.00 in
17:25 85.5 °F 66.4 °F 29.93 in SW 8.0 mph 9.0 mph 53% 0.00 in
17:30 85.9 °F 66.8 °F 29.92 in SSW 5.0 mph 8.0 mph 53% 0.00 in
17:35 86.2 °F 65.4 °F 29.93 in South 5.0 mph 9.0 mph 50% 0.00 in
17:40 86.4 °F 66.2 °F 29.92 in WSW 4.0 mph 7.0 mph 51% 0.00 in
17:45 86.5 °F 66.2 °F 29.92 in WSW 7.0 mph 7.0 mph 51% 0.00 in
17:50 86.2 °F 64.8 °F 29.92 in SW 7.0 mph 8.0 mph 49% 0.00 in
17:55 86.2 °F 65.4 °F 29.92 in SSW 5.0 mph 8.0 mph 50% 0.00 in
18:00 86.7 °F 66.4 °F 29.92 in SE 3.0 mph 5.0 mph 51% 0.00 in
18:05 86.9 °F 65.5 °F 29.92 in WSW 11.0 mph 11.0 mph 49% 0.00 in
18:10 86.6 °F 65.2 °F 29.92 in SSW 7.0 mph 8.0 mph 49% 0.00 in
18:15 86.6 °F 64.6 °F 29.92 in SW 5.0 mph 7.0 mph 48% 0.00 in
18:20 86.5 °F 65.7 °F 29.92 in SW 3.0 mph 5.0 mph 50% 0.00 in
18:25 86.4 °F 66.2 °F 29.92 in SW 5.0 mph 7.0 mph 51% 0.00 in
18:30 86.3 °F 65.5 °F 29.92 in South 3.0 mph 6.0 mph 50% 0.00 in
18:35 86.7 °F 66.4 °F 29.92 in South 6.0 mph 6.0 mph 51% 0.00 in
18:40 86.5 °F 66.2 °F 29.92 in WSW 6.0 mph 7.0 mph 51% 0.00 in
18:45 86.2 °F 66.0 °F 29.92 in WSW 3.0 mph 5.0 mph 51% 0.00 in
18:50 86.4 °F 66.7 °F 29.92 in SSW 4.0 mph 6.0 mph 52% 0.00 in
18:55 86.5 °F 65.1 °F 29.92 in SW 5.0 mph 9.0 mph 49% 0.00 in
19:00 86.1 °F 64.1 °F 29.92 in SSW 3.0 mph 9.0 mph 48% 0.00 in
19:05 86.1 °F 64.1 °F 29.92 in SSE 2.0 mph 7.0 mph 48% 0.00 in
19:10 86.3 °F 64.9 °F 29.92 in SSW 2.0 mph 4.0 mph 49% 0.00 in
19:15 86.2 °F 66.5 °F 29.92 in SW 2.0 mph 5.0 mph 52% 0.00 in
19:20 86.0 °F 65.8 °F 29.92 in SSW 3.0 mph 4.0 mph 51% 0.00 in
19:25 86.0 °F 65.2 °F 29.92 in SW 4.0 mph 4.0 mph 50% 0.00 in
19:30 85.9 °F 65.1 °F 29.92 in SW 4.0 mph 5.0 mph 50% 0.00 in
19:35 85.4 °F 66.3 °F 29.92 in SW 2.0 mph 5.0 mph 53% 0.00 in
19:40 84.8 °F 66.3 °F 29.92 in SSW 2.0 mph 3.0 mph 54% 0.00 in
19:45 84.4 °F 65.9 °F 29.92 in SW 2.0 mph 3.0 mph 54% 0.00 in
19:50 84.3 °F 66.4 °F 29.92 in SW 2.0 mph 5.0 mph 55% 0.00 in
19:55 84.0 °F 66.1 °F 29.93 in SW 2.0 mph 3.0 mph 55% 0.00 in
20:00 84.0 °F 66.1 °F 29.92 in SW 1.0 mph 2.0 mph 55% 0.00 in
20:05 84.0 °F 66.1 °F 29.93 in SW 2.0 mph 2.0 mph 55% 0.00 in
20:10 84.0 °F 66.6 °F 29.93 in SSW 1.0 mph 2.0 mph 56% 0.00 in
20:15 84.1 °F 66.7 °F 29.92 in SSW 1.0 mph 2.0 mph 56% 0.00 in
20:20 84.1 °F 67.2 °F 29.93 in SSE 1.0 mph 1.0 mph 57% 0.00 in
20:25 83.7 °F 67.4 °F 29.93 in Calm     58% 0.00 in
20:30 83.4 °F 67.6 °F 29.93 in Calm     59% 0.00 in
20:36 82.8 °F 66.5 °F 29.92 in Calm   1.0 mph 58% 0.00 in
20:41 82.0 °F 66.8 °F 29.93 in Calm     60% 0.00 in
20:46 81.1 °F 66.9 °F 29.93 in SSE 1.0 mph 1.0 mph 62% 0.00 in
20:51 80.4 °F 66.2 °F 29.93 in SE 1.0 mph 2.0 mph 62% 0.00 in
20:56 80.0 °F 65.8 °F 29.93 in SSE 1.0 mph 1.0 mph 62% 0.00 in
21:01 79.6 °F 65.9 °F 29.93 in SE 1.0 mph 1.0 mph 63% 0.00 in
21:06 79.2 °F 66.0 °F 29.93 in SE 2.0 mph 2.0 mph 64% 0.00 in
21:11 78.8 °F 65.6 °F 29.93 in SE 1.0 mph 1.0 mph 64% 0.00 in
21:16 78.5 °F 65.3 °F 29.93 in SE 1.0 mph 1.0 mph 64% 0.00 in
21:21 78.3 °F 65.1 °F 29.93 in SSE 1.0 mph 1.0 mph 64% 0.00 in
21:26 78.2 °F 65.5 °F 29.93 in SSE 2.0 mph 2.0 mph 65% 0.00 in
21:31 77.9 °F 65.2 °F 29.93 in SSE 1.0 mph 2.0 mph 65% 0.00 in
21:36 77.8 °F 65.5 °F 29.93 in SE 1.0 mph 2.0 mph 66% 0.00 in
21:41 77.5 °F 65.3 °F 29.93 in SE 1.0 mph 1.0 mph 66% 0.00 in
21:46 77.2 °F 65.4 °F 29.94 in ESE 1.0 mph 1.0 mph 67% 0.00 in
21:51 76.7 °F 66.2 °F 29.94 in ESE 1.0 mph 2.0 mph 70% 0.00 in
21:56 76.2 °F 65.7 °F 29.94 in ESE 3.0 mph 4.0 mph 70% 0.00 in
22:01 75.7 °F 66.0 °F 29.94 in ESE 4.0 mph 4.0 mph 72% 0.00 in
22:06 75.6 °F 65.9 °F 29.94 in ESE 5.0 mph 6.0 mph 72% 0.00 in
22:11 75.9 °F 66.2 °F 29.94 in SE 1.0 mph 3.0 mph 72% 0.00 in
22:16 75.9 °F 65.8 °F 29.95 in SE 3.0 mph 4.0 mph 71% 0.00 in
22:21 76.2 °F 65.7 °F 29.95 in SE 2.0 mph 4.0 mph 70% 0.00 in
22:26 76.4 °F 65.9 °F 29.95 in ESE 2.0 mph 4.0 mph 70% 0.00 in
22:31 76.3 °F 65.8 °F 29.96 in ESE 3.0 mph 4.0 mph 70% 0.00 in
22:36 76.4 °F 65.9 °F 29.96 in ESE 4.0 mph 5.0 mph 70% 0.00 in
22:41 76.4 °F 65.9 °F 29.96 in SE 4.0 mph 5.0 mph 70% 0.00 in
22:46 76.4 °F 65.9 °F 29.96 in SE 3.0 mph 4.0 mph 70% 0.00 in
22:51 76.4 °F 65.9 °F 29.97 in SE 4.0 mph 4.0 mph 70% 0.00 in
22:56 76.6 °F 66.1 °F 29.97 in ESE 3.0 mph 3.0 mph 70% 0.00 in
23:01 76.7 °F 66.2 °F 29.97 in SE 2.0 mph 3.0 mph 70% 0.00 in
23:06 76.6 °F 66.1 °F 29.97 in SE 2.0 mph 3.0 mph 70% 0.00 in
23:11 76.4 °F 66.3 °F 29.98 in SE 2.0 mph 3.0 mph 71% 0.00 in
23:16 76.3 °F 66.2 °F 29.98 in ESE 3.0 mph 3.0 mph 71% 0.00 in
23:21 76.2 °F 66.5 °F 29.98 in SE 1.0 mph 3.0 mph 72% 0.00 in
23:26 75.9 °F 66.2 °F 29.98 in ESE 3.0 mph 3.0 mph 72% 0.00 in
23:31 75.6 °F 66.3 °F 29.98 in SE 3.0 mph 3.0 mph 73% 0.00 in
23:36 75.5 °F 66.2 °F 29.98 in SE 3.0 mph 3.0 mph 73% 0.00 in
23:41 75.5 °F 66.2 °F 29.98 in SE 3.0 mph 4.0 mph 73% 0.00 in
23:46 75.3 °F 66.4 °F 29.98 in SE 2.0 mph 3.0 mph 74% 0.00 in
23:51 75.1 °F 66.2 °F 29.98 in ESE 2.0 mph 3.0 mph 74% 0.00 in
23:56 75.0 °F 66.2 °F 29.98 in ESE 3.0 mph 3.0 mph 74% 0.00 in
Compliments of Weather Underground